createdAt,value
2018-07-05T00:00:50.802Z,1006.63
2018-07-05T00:01:50.381Z,1006.61
2018-07-05T00:02:50.893Z,1006.56
2018-07-05T00:03:50.958Z,1006.61
2018-07-05T00:04:50.798Z,1006.54
2018-07-05T00:05:50.967Z,1006.52
2018-07-05T00:06:50.881Z,1006.52
2018-07-05T00:07:50.690Z,1006.55
2018-07-05T00:08:50.694Z,1006.55
2018-07-05T00:09:50.791Z,1006.53
2018-07-05T00:10:50.715Z,1006.58
2018-07-05T00:11:50.632Z,1006.56
2018-07-05T00:12:50.759Z,1006.55
2018-07-05T00:13:50.701Z,1006.55
2018-07-05T00:14:50.730Z,1006.52
2018-07-05T00:15:50.736Z,1006.53
2018-07-05T00:16:50.744Z,1006.59
2018-07-05T00:17:50.747Z,1006.58
2018-07-05T00:18:50.760Z,1006.55
2018-07-05T00:19:50.944Z,1006.53
2018-07-05T00:20:50.870Z,1006.53
2018-07-05T00:21:50.717Z,1006.52
2018-07-05T00:22:51.141Z,1006.52
2018-07-05T00:23:50.897Z,1006.54
2018-07-05T00:24:50.868Z,1006.55
2018-07-05T00:25:51.000Z,1006.56
2018-07-05T00:26:50.963Z,1006.56
2018-07-05T00:27:50.873Z,1006.56
2018-07-05T00:28:50.945Z,1006.55
2018-07-05T00:29:50.983Z,1006.54
2018-07-05T00:30:50.970Z,1006.56
2018-07-05T00:31:50.979Z,1006.57
2018-07-05T00:32:50.665Z,1006.60
2018-07-05T00:33:50.775Z,1006.56
2018-07-05T00:34:50.780Z,1006.60
2018-07-05T00:35:50.857Z,1006.58
2018-07-05T00:36:50.775Z,1006.60
2018-07-05T00:37:50.853Z,1006.61
2018-07-05T00:38:50.765Z,1006.61
2018-07-05T00:39:50.911Z,1006.62
2018-07-05T00:40:50.820Z,1006.62
2018-07-05T00:41:50.811Z,1006.65
2018-07-05T00:42:50.909Z,1006.64
2018-07-05T00:43:50.769Z,1006.65
2018-07-05T00:44:50.893Z,1006.65
2018-07-05T00:45:50.901Z,1006.63
2018-07-05T00:46:50.903Z,1006.61
2018-07-05T00:47:50.898Z,1006.60
2018-07-05T00:48:50.873Z,1006.55
2018-07-05T00:49:50.858Z,1006.52
2018-07-05T00:50:50.894Z,1006.56
2018-07-05T00:51:50.998Z,1006.50
2018-07-05T00:52:50.973Z,1006.53
2018-07-05T00:53:51.135Z,1006.49
2018-07-05T00:54:50.880Z,1006.47
2018-07-05T00:55:53.277Z,1006.50
2018-07-05T00:56:50.892Z,1006.50
2018-07-05T00:57:50.895Z,1006.54
2018-07-05T00:58:50.858Z,1006.54
2018-07-05T00:59:50.439Z,1006.55
2018-07-05T01:00:50.810Z,1006.62
2018-07-05T01:01:51.084Z,1006.57
2018-07-05T01:02:51.108Z,1006.53
2018-07-05T01:03:51.117Z,1006.53
2018-07-05T01:04:51.092Z,1006.50
2018-07-05T01:05:51.139Z,1006.51
2018-07-05T01:06:51.132Z,1006.48
2018-07-05T01:07:51.083Z,1006.45
2018-07-05T01:08:51.102Z,1006.41
2018-07-05T01:09:51.129Z,1006.36
2018-07-05T01:10:52.960Z,1006.37
2018-07-05T01:11:51.120Z,1006.33
2018-07-05T01:12:51.141Z,1006.33
2018-07-05T01:13:51.060Z,1006.35
2018-07-05T01:14:51.156Z,1006.38
2018-07-05T01:15:51.149Z,1006.39
2018-07-05T01:16:51.224Z,1006.38
2018-07-05T01:17:51.156Z,1006.32
2018-07-05T01:18:51.120Z,1006.33
2018-07-05T01:19:51.174Z,1006.37
2018-07-05T01:20:51.118Z,1006.38
2018-07-05T01:21:50.557Z,1006.38
2018-07-05T01:22:51.151Z,1006.45
2018-07-05T01:23:51.138Z,1006.49
2018-07-05T01:24:51.092Z,1006.52
2018-07-05T01:25:51.092Z,1006.50
2018-07-05T01:26:51.142Z,1006.54
2018-07-05T01:27:51.100Z,1006.50
2018-07-05T01:28:51.120Z,1006.49
2018-07-05T01:29:51.088Z,1006.49
2018-07-05T01:30:51.092Z,1006.45
2018-07-05T01:31:51.094Z,1006.42
2018-07-05T01:32:51.093Z,1006.43
2018-07-05T01:33:51.149Z,1006.45
2018-07-05T01:34:51.040Z,1006.51
2018-07-05T01:35:51.143Z,1006.50
2018-07-05T01:36:51.067Z,1006.49
2018-07-05T01:37:51.117Z,1006.44
2018-07-05T01:38:51.149Z,1006.47
2018-07-05T01:39:51.155Z,1006.46
2018-07-05T01:40:51.128Z,1006.45
2018-07-05T01:41:51.127Z,1006.46
2018-07-05T01:42:51.178Z,1006.45
2018-07-05T01:43:50.579Z,1006.52
2018-07-05T01:44:51.128Z,1006.50
2018-07-05T01:45:52.938Z,1006.51
2018-07-05T01:46:51.118Z,1006.51
2018-07-05T01:47:51.174Z,1006.49
2018-07-05T01:48:51.149Z,1006.54
2018-07-05T01:49:51.069Z,1006.58
2018-07-05T01:50:51.099Z,1006.58
2018-07-05T01:51:51.106Z,1006.60
2018-07-05T01:52:51.041Z,1006.59
2018-07-05T01:53:51.101Z,1006.58
2018-07-05T01:54:51.119Z,1006.58
2018-07-05T01:55:51.127Z,1006.60
2018-07-05T01:56:51.060Z,1006.59
2018-07-05T01:57:51.161Z,1006.57
2018-07-05T01:58:51.039Z,1006.62
2018-07-05T01:59:51.141Z,1006.60
2018-07-05T02:00:51.152Z,1006.64
2018-07-05T02:01:51.078Z,1006.66
2018-07-05T02:02:51.170Z,1006.59
2018-07-05T02:03:51.089Z,1006.61
2018-07-05T02:04:51.076Z,1006.65
2018-07-05T02:05:51.101Z,1006.61
2018-07-05T02:06:51.139Z,1006.61
2018-07-05T02:07:51.159Z,1006.64
2018-07-05T02:08:51.105Z,1006.65
2018-07-05T02:09:51.118Z,1006.63
2018-07-05T02:10:51.125Z,1006.62
2018-07-05T02:11:51.213Z,1006.65
2018-07-05T02:12:51.118Z,1006.61
2018-07-05T02:13:51.108Z,1006.65
2018-07-05T02:14:51.468Z,1006.66
2018-07-05T02:15:51.190Z,1006.62
2018-07-05T02:16:51.123Z,1006.61
2018-07-05T02:17:51.153Z,1006.62
2018-07-05T02:18:51.044Z,1006.60
2018-07-05T02:19:51.129Z,1006.58
2018-07-05T02:20:51.087Z,1006.58
2018-07-05T02:21:51.114Z,1006.59
2018-07-05T02:22:51.124Z,1006.58
2018-07-05T02:23:51.140Z,1006.59
2018-07-05T02:24:51.111Z,1006.60
2018-07-05T02:25:51.201Z,1006.60
2018-07-05T02:26:51.084Z,1006.60
2018-07-05T02:27:51.175Z,1006.54
2018-07-05T02:28:51.132Z,1006.58
2018-07-05T02:29:51.199Z,1006.53
2018-07-05T02:30:50.643Z,1006.52
2018-07-05T02:31:53.043Z,1006.48
2018-07-05T02:32:51.166Z,1006.51
2018-07-05T02:33:50.660Z,1006.56
2018-07-05T02:34:51.116Z,1006.53
2018-07-05T02:35:51.128Z,1006.56
2018-07-05T02:36:51.185Z,1006.56
2018-07-05T02:37:51.123Z,1006.53
2018-07-05T02:38:51.198Z,1006.54
2018-07-05T02:39:51.119Z,1006.54
2018-07-05T02:40:51.109Z,1006.54
2018-07-05T02:41:51.100Z,1006.50
2018-07-05T02:42:51.095Z,1006.47
2018-07-05T02:43:51.176Z,1006.46
2018-07-05T02:44:51.109Z,1006.45
2018-07-05T02:45:51.179Z,1006.42
2018-07-05T02:46:51.164Z,1006.45
2018-07-05T02:47:51.149Z,1006.39
2018-07-05T02:48:51.128Z,1006.39
2018-07-05T02:49:51.118Z,1006.38
2018-07-05T02:50:51.133Z,1006.38
2018-07-05T02:51:51.109Z,1006.33
2018-07-05T02:52:51.104Z,1006.29
2018-07-05T02:53:51.139Z,1006.30
2018-07-05T02:54:51.133Z,1006.23
2018-07-05T02:55:51.199Z,1006.27
2018-07-05T02:56:51.196Z,1006.28
2018-07-05T02:57:51.107Z,1006.28
2018-07-05T02:58:51.173Z,1006.29
2018-07-05T02:59:51.108Z,1006.28
2018-07-05T03:00:51.116Z,1006.29
2018-07-05T03:01:51.240Z,1006.29
2018-07-05T03:02:51.122Z,1006.28
2018-07-05T03:03:51.229Z,1006.28
2018-07-05T03:04:51.203Z,1006.27
2018-07-05T03:05:51.207Z,1006.28
2018-07-05T03:06:51.108Z,1006.27
2018-07-05T03:07:51.086Z,1006.24
2018-07-05T03:08:51.156Z,1006.25
2018-07-05T03:09:50.689Z,1006.16
2018-07-05T03:10:51.078Z,1006.17
2018-07-05T03:11:51.210Z,1006.15
2018-07-05T03:12:51.210Z,1006.11
2018-07-05T03:13:51.123Z,1006.08
2018-07-05T03:14:51.102Z,1006.08
2018-07-05T03:15:50.715Z,1006.15
2018-07-05T03:16:51.184Z,1006.16
2018-07-05T03:17:51.101Z,1006.16
2018-07-05T03:18:51.159Z,1006.11
2018-07-05T03:19:51.179Z,1006.13
2018-07-05T03:20:51.174Z,1006.18
2018-07-05T03:21:51.247Z,1006.17
2018-07-05T03:22:51.143Z,1006.11
2018-07-05T03:23:51.200Z,1006.09
2018-07-05T03:24:51.192Z,1006.12
2018-07-05T03:25:51.194Z,1006.09
2018-07-05T03:26:51.176Z,1006.12
2018-07-05T03:27:51.204Z,1006.07
2018-07-05T03:28:51.213Z,1006.11
2018-07-05T03:29:51.200Z,1006.09
2018-07-05T03:30:51.084Z,1006.11
2018-07-05T03:31:51.182Z,1006.11
2018-07-05T03:32:53.349Z,1006.14
2018-07-05T03:33:51.113Z,1006.19
2018-07-05T03:34:51.135Z,1006.21
2018-07-05T03:35:50.749Z,1006.16
2018-07-05T03:36:51.185Z,1006.18
2018-07-05T03:37:51.175Z,1006.18
2018-07-05T03:38:51.222Z,1006.24
2018-07-05T03:39:51.224Z,1006.27
2018-07-05T03:40:51.185Z,1006.25
2018-07-05T03:41:51.189Z,1006.32
2018-07-05T03:42:51.182Z,1006.34
2018-07-05T03:43:51.203Z,1006.36
2018-07-05T03:44:51.198Z,1006.40
2018-07-05T03:45:51.192Z,1006.39
2018-07-05T03:46:51.179Z,1006.38
2018-07-05T03:47:51.218Z,1006.38
2018-07-05T03:48:51.196Z,1006.39
2018-07-05T03:49:51.190Z,1006.38
2018-07-05T03:50:51.214Z,1006.34
2018-07-05T03:51:51.189Z,1006.32
2018-07-05T03:52:51.239Z,1006.40
2018-07-05T03:53:51.239Z,1006.41
2018-07-05T03:54:51.232Z,1006.40
2018-07-05T03:55:51.230Z,1006.41
2018-07-05T03:56:50.709Z,1006.40
2018-07-05T03:57:51.219Z,1006.44
2018-07-05T03:58:51.164Z,1006.45
2018-07-05T03:59:51.178Z,1006.51
2018-07-05T04:00:51.180Z,1006.48
2018-07-05T04:01:51.176Z,1006.49
2018-07-05T04:02:51.220Z,1006.51
2018-07-05T04:03:51.195Z,1006.49
2018-07-05T04:04:51.164Z,1006.51
2018-07-05T04:05:51.195Z,1006.47
2018-07-05T04:06:51.212Z,1006.45
2018-07-05T04:07:51.209Z,1006.43
2018-07-05T04:08:51.210Z,1006.40
2018-07-05T04:09:51.222Z,1006.39
2018-07-05T04:10:50.704Z,1006.33
2018-07-05T04:11:51.186Z,1006.31
2018-07-05T04:12:51.196Z,1006.31
2018-07-05T04:13:51.196Z,1006.32
2018-07-05T04:14:51.168Z,1006.31
2018-07-05T04:15:51.238Z,1006.31
2018-07-05T04:16:51.230Z,1006.34
2018-07-05T04:17:51.239Z,1006.31
2018-07-05T04:18:51.181Z,1006.33
2018-07-05T04:19:51.227Z,1006.36
2018-07-05T04:20:51.241Z,1006.34
2018-07-05T04:21:51.101Z,1006.33
2018-07-05T04:22:51.786Z,1006.38
2018-07-05T04:23:51.134Z,1006.38
2018-07-05T04:24:51.172Z,1006.37
2018-07-05T04:25:51.699Z,1006.43
2018-07-05T04:26:50.691Z,1006.37
2018-07-05T04:27:51.179Z,1006.38
2018-07-05T04:28:51.690Z,1006.35
2018-07-05T04:29:51.684Z,1006.39
2018-07-05T04:30:50.774Z,1006.38
2018-07-05T04:31:51.221Z,1006.37
2018-07-05T04:32:51.213Z,1006.37
2018-07-05T04:33:51.208Z,1006.38
2018-07-05T04:34:51.192Z,1006.35
2018-07-05T04:35:51.261Z,1006.39
2018-07-05T04:36:51.215Z,1006.33
2018-07-05T04:37:51.107Z,1006.34
2018-07-05T04:38:51.221Z,1006.34
2018-07-05T04:39:51.197Z,1006.41
2018-07-05T04:40:51.200Z,1006.36
2018-07-05T04:41:51.242Z,1006.44
2018-07-05T04:42:51.207Z,1006.43
2018-07-05T04:43:51.288Z,1006.46
2018-07-05T04:44:51.202Z,1006.49
2018-07-05T04:45:51.239Z,1006.44
2018-07-05T04:46:51.172Z,1006.41
2018-07-05T04:47:51.107Z,1006.43
2018-07-05T04:48:51.186Z,1006.46
2018-07-05T04:49:51.206Z,1006.46
2018-07-05T04:50:51.189Z,1006.46
2018-07-05T04:51:51.198Z,1006.48
2018-07-05T04:52:51.132Z,1006.43
2018-07-05T04:53:51.223Z,1006.43
2018-07-05T04:54:51.204Z,1006.46
2018-07-05T04:55:51.195Z,1006.45
2018-07-05T04:56:51.262Z,1006.46
2018-07-05T04:57:51.233Z,1006.48
2018-07-05T04:58:51.256Z,1006.46
2018-07-05T04:59:51.219Z,1006.50
2018-07-05T05:00:51.708Z,1006.50
2018-07-05T05:01:51.161Z,1006.47
2018-07-05T05:02:51.091Z,1006.46
2018-07-05T05:03:51.710Z,1006.46
2018-07-05T05:04:51.206Z,1006.50
2018-07-05T05:05:51.224Z,1006.49
2018-07-05T05:06:51.693Z,1006.44
2018-07-05T05:07:51.127Z,1006.45
2018-07-05T05:09:51.896Z,1006.47
2018-07-05T05:10:51.701Z,1006.46
2018-07-05T05:11:51.722Z,1006.45
2018-07-05T05:12:52.595Z,1006.45
2018-07-05T05:13:51.229Z,1006.46
2018-07-05T05:14:51.284Z,1006.46
2018-07-05T05:15:51.710Z,1006.46
2018-07-05T05:16:50.953Z,1006.50
2018-07-05T05:17:51.709Z,1006.52
2018-07-05T05:18:51.204Z,1006.54
2018-07-05T05:19:51.432Z,1006.58
2018-07-05T05:20:51.174Z,1006.59
2018-07-05T05:21:51.684Z,1006.59
2018-07-05T05:22:51.460Z,1006.57
2018-07-05T05:23:51.222Z,1006.59
2018-07-05T05:24:51.459Z,1006.61
2018-07-05T05:25:51.466Z,1006.59
2018-07-05T05:26:51.996Z,1006.61
2018-07-05T05:27:51.231Z,1006.59
2018-07-05T05:28:51.231Z,1006.63
2018-07-05T05:29:51.154Z,1006.67
2018-07-05T05:30:51.196Z,1006.69
2018-07-05T05:31:51.170Z,1006.68
2018-07-05T05:32:51.418Z,1006.69
2018-07-05T05:33:51.813Z,1006.73
2018-07-05T05:34:51.627Z,1006.71
2018-07-05T05:35:51.235Z,1006.72
2018-07-05T05:36:51.226Z,1006.75
2018-07-05T05:37:51.229Z,1006.69
2018-07-05T05:38:53.019Z,1006.73
2018-07-05T05:39:51.200Z,1006.73
2018-07-05T05:40:51.221Z,1006.75
2018-07-05T05:41:51.228Z,1006.73
2018-07-05T05:42:51.252Z,1006.73
2018-07-05T05:43:51.229Z,1006.76
2018-07-05T05:44:51.209Z,1006.73
2018-07-05T05:45:51.233Z,1006.78
2018-07-05T05:46:51.719Z,1006.81
2018-07-05T05:47:51.198Z,1006.80
2018-07-05T05:48:51.215Z,1006.80
2018-07-05T05:49:51.217Z,1006.79
2018-07-05T05:50:53.570Z,1006.81
2018-07-05T05:51:51.449Z,1006.76
2018-07-05T05:52:50.783Z,1006.81
2018-07-05T05:53:51.288Z,1006.81
2018-07-05T05:54:51.246Z,1006.78
2018-07-05T05:55:51.733Z,1006.85
2018-07-05T05:56:50.754Z,1006.77
2018-07-05T05:57:51.862Z,1006.81
2018-07-05T05:58:50.851Z,1006.80
2018-07-05T05:59:51.250Z,1006.76
2018-07-05T06:00:51.225Z,1006.78
2018-07-05T06:01:51.170Z,1006.76
2018-07-05T06:02:50.875Z,1006.76
2018-07-05T06:03:51.173Z,1006.74
2018-07-05T06:04:51.806Z,1006.79
2018-07-05T06:05:51.226Z,1006.82
2018-07-05T06:06:51.285Z,1006.84
2018-07-05T06:07:51.222Z,1006.84
2018-07-05T06:08:57.232Z,1006.83
2018-07-05T06:09:51.142Z,1006.84
2018-07-05T06:10:51.219Z,1006.85
2018-07-05T06:11:51.206Z,1006.80
2018-07-05T06:12:51.256Z,1006.82
2018-07-05T06:13:51.200Z,1006.84
2018-07-05T06:14:51.267Z,1006.84
2018-07-05T06:15:51.277Z,1006.81
2018-07-05T06:16:51.403Z,1006.81
2018-07-05T06:17:51.731Z,1006.85
2018-07-05T06:18:52.353Z,1006.77
2018-07-05T06:19:51.346Z,1006.78
2018-07-05T06:20:51.249Z,1006.82
2018-07-05T06:21:51.732Z,1006.80
2018-07-05T06:22:51.276Z,1006.83
2018-07-05T06:23:51.749Z,1006.85
2018-07-05T06:24:51.480Z,1006.85
2018-07-05T06:25:51.223Z,1006.85
2018-07-05T06:26:51.460Z,1006.86
2018-07-05T06:27:51.204Z,1006.85
2018-07-05T06:28:51.307Z,1006.82
2018-07-05T06:29:51.251Z,1006.83
2018-07-05T06:30:51.176Z,1006.75
2018-07-05T06:31:51.835Z,1006.77
2018-07-05T06:32:51.213Z,1006.76
2018-07-05T06:33:51.235Z,1006.78
2018-07-05T06:34:51.179Z,1006.77
2018-07-05T06:35:51.512Z,1006.82
2018-07-05T06:36:50.795Z,1006.81
2018-07-05T06:37:51.204Z,1006.81
2018-07-05T06:38:51.459Z,1006.80
2018-07-05T06:39:51.241Z,1006.74
2018-07-05T06:40:51.260Z,1006.72
2018-07-05T06:41:51.480Z,1006.72
2018-07-05T06:42:51.733Z,1006.69
2018-07-05T06:43:51.945Z,1006.75
2018-07-05T06:44:51.241Z,1006.70
2018-07-05T06:45:51.753Z,1006.75
2018-07-05T06:46:51.447Z,1006.77
2018-07-05T06:47:51.964Z,1006.79
2018-07-05T06:48:51.212Z,1006.79
2018-07-05T06:49:51.211Z,1006.85
2018-07-05T06:50:51.748Z,1006.81
2018-07-05T06:51:51.321Z,1006.84
2018-07-05T06:52:53.161Z,1006.86
2018-07-05T06:53:51.272Z,1006.87
2018-07-05T06:54:51.773Z,1006.86
2018-07-05T06:55:51.250Z,1006.86
2018-07-05T06:56:51.213Z,1006.88
2018-07-05T06:57:51.231Z,1006.83
2018-07-05T06:58:51.157Z,1006.88
2018-07-05T06:59:51.749Z,1006.87
2018-07-05T07:00:51.276Z,1006.88
2018-07-05T07:01:51.498Z,1006.94
2018-07-05T07:02:50.865Z,1006.94
2018-07-05T07:03:51.551Z,1006.94
2018-07-05T07:04:51.183Z,1006.98
2018-07-05T07:05:51.879Z,1007.00
2018-07-05T07:06:51.232Z,1006.99
2018-07-05T07:07:51.246Z,1007.03
2018-07-05T07:08:51.223Z,1007.01
2018-07-05T07:09:50.899Z,1006.99
2018-07-05T07:10:51.216Z,1006.97
2018-07-05T07:11:51.280Z,1007.00
2018-07-05T07:12:51.735Z,1006.99
2018-07-05T07:13:51.306Z,1007.00
2018-07-05T07:14:51.316Z,1007.05
2018-07-05T07:15:51.460Z,1007.01
2018-07-05T07:16:51.319Z,1007.01
2018-07-05T07:17:51.752Z,1007.04
2018-07-05T07:18:51.761Z,1007.03
2018-07-05T07:19:51.752Z,1007.02
2018-07-05T07:20:51.205Z,1007.03
2018-07-05T07:21:51.234Z,1007.07
2018-07-05T07:22:51.406Z,1007.11
2018-07-05T07:23:51.506Z,1007.13
2018-07-05T07:24:51.739Z,1007.13
2018-07-05T07:25:50.951Z,1007.17
2018-07-05T07:26:51.648Z,1007.16
2018-07-05T07:27:51.507Z,1007.17
2018-07-05T07:28:50.917Z,1007.18
2018-07-05T07:29:51.235Z,1007.15
2018-07-05T07:30:51.508Z,1007.17
2018-07-05T07:31:51.429Z,1007.17
2018-07-05T07:32:51.465Z,1007.16
2018-07-05T07:33:51.226Z,1007.18
2018-07-05T07:34:51.279Z,1007.18
2018-07-05T07:35:50.984Z,1007.16
2018-07-05T07:36:51.560Z,1007.19
2018-07-05T07:37:51.148Z,1007.18
2018-07-05T07:38:51.162Z,1007.17
2018-07-05T07:39:51.767Z,1007.18
2018-07-05T07:40:51.795Z,1007.16
2018-07-05T07:41:51.274Z,1007.17
2018-07-05T07:42:51.942Z,1007.14
2018-07-05T07:43:50.984Z,1007.20
2018-07-05T07:44:51.932Z,1007.19
2018-07-05T07:45:51.008Z,1007.20
2018-07-05T07:46:51.778Z,1007.22
2018-07-05T07:47:51.867Z,1007.26
2018-07-05T07:48:51.364Z,1007.21
2018-07-05T07:49:51.373Z,1007.25
2018-07-05T07:50:51.398Z,1007.22
2018-07-05T07:51:51.404Z,1007.16
2018-07-05T07:52:51.009Z,1007.18
2018-07-05T07:53:52.278Z,1007.12
2018-07-05T07:54:51.330Z,1007.13
2018-07-05T07:55:51.333Z,1007.15
2018-07-05T07:56:51.783Z,1007.16
2018-07-05T07:57:51.403Z,1007.14
2018-07-05T07:58:51.969Z,1007.20
2018-07-05T07:59:51.910Z,1007.18
2018-07-05T08:00:51.476Z,1007.18
2018-07-05T08:01:51.077Z,1007.20
2018-07-05T08:02:51.839Z,1007.18
2018-07-05T08:03:51.797Z,1007.22
2018-07-05T08:04:51.494Z,1007.24
2018-07-05T08:05:51.181Z,1007.20
2018-07-05T08:06:51.164Z,1007.19
2018-07-05T08:07:51.779Z,1007.17
2018-07-05T08:08:51.484Z,1007.20
2018-07-05T08:09:51.477Z,1007.19
2018-07-05T08:10:51.442Z,1007.19
2018-07-05T08:11:53.136Z,1007.19
2018-07-05T08:12:51.900Z,1007.20
2018-07-05T08:13:51.351Z,1007.18
2018-07-05T08:14:52.310Z,1007.20
2018-07-05T08:15:51.448Z,1007.20
2018-07-05T08:16:51.527Z,1007.14
2018-07-05T08:17:51.381Z,1007.13
2018-07-05T08:18:51.356Z,1007.07
2018-07-05T08:19:51.415Z,1007.09
2018-07-05T08:20:51.818Z,1007.09
2018-07-05T08:21:51.393Z,1007.09
2018-07-05T08:22:51.344Z,1007.03
2018-07-05T08:23:51.009Z,1007.04
2018-07-05T08:24:51.977Z,1007.03
2018-07-05T08:25:51.074Z,1007.04
2018-07-05T08:26:51.433Z,1007.03
2018-07-05T08:27:51.872Z,1007.06
2018-07-05T08:28:51.487Z,1007.03
2018-07-05T08:29:51.563Z,1007.04
2018-07-05T08:30:51.542Z,1007.02
2018-07-05T08:31:53.443Z,1006.96
2018-07-05T08:32:51.531Z,1007.00
2018-07-05T08:33:51.128Z,1006.99
2018-07-05T08:34:51.485Z,1006.97
2018-07-05T08:35:52.289Z,1006.99
2018-07-05T08:36:52.073Z,1006.95
2018-07-05T08:37:51.500Z,1006.97
2018-07-05T08:38:51.365Z,1006.92
2018-07-05T08:39:51.357Z,1006.92
2018-07-05T08:40:51.943Z,1006.92
2018-07-05T08:41:52.073Z,1006.89
2018-07-05T08:42:51.902Z,1006.91
2018-07-05T08:43:52.148Z,1006.90
2018-07-05T08:44:52.046Z,1006.88
2018-07-05T08:45:56.044Z,1006.87
2018-07-05T08:46:51.494Z,1006.80
2018-07-05T08:48:52.851Z,1006.81
2018-07-05T08:49:51.947Z,1006.81
2018-07-05T08:50:51.609Z,1006.78
2018-07-05T08:51:51.503Z,1006.80
2018-07-05T08:52:51.564Z,1006.77
2018-07-05T08:53:52.020Z,1006.80
2018-07-05T08:54:54.724Z,1006.81
2018-07-05T08:55:53.081Z,1006.81
2018-07-05T08:56:51.820Z,1006.82
2018-07-05T08:57:51.810Z,1006.79
2018-07-05T08:58:54.685Z,1006.80
2018-07-05T08:59:51.647Z,1006.80
2018-07-05T09:00:51.749Z,1006.77
2018-07-05T09:01:52.307Z,1006.81
2018-07-05T09:02:51.791Z,1006.75
2018-07-05T09:03:51.716Z,1006.73
2018-07-05T09:04:51.783Z,1006.74
2018-07-05T09:05:52.438Z,1006.71
2018-07-05T09:06:52.041Z,1006.72
2018-07-05T09:07:52.308Z,1006.64
2018-07-05T09:08:52.760Z,1006.68
2018-07-05T09:09:51.788Z,1006.67
2018-07-05T09:10:51.746Z,1006.62
2018-07-05T09:11:53.618Z,1006.61
2018-07-05T09:12:51.814Z,1006.60
2018-07-05T09:13:51.807Z,1006.58
2018-07-05T09:14:51.807Z,1006.51
2018-07-05T09:15:52.513Z,1006.55
2018-07-05T09:16:51.799Z,1006.61
2018-07-05T09:17:52.098Z,1006.65
2018-07-05T09:18:51.805Z,1006.64
2018-07-05T09:19:51.785Z,1006.63
2018-07-05T09:20:52.010Z,1006.68
2018-07-05T09:21:52.012Z,1006.68
2018-07-05T09:22:51.819Z,1006.63
2018-07-05T09:23:52.018Z,1006.59
2018-07-05T09:24:52.300Z,1006.59
2018-07-05T09:25:51.967Z,1006.55
2018-07-05T09:26:51.721Z,1006.59
2018-07-05T09:27:52.032Z,1006.59
2018-07-05T09:28:51.757Z,1006.61
2018-07-05T09:29:52.075Z,1006.57
2018-07-05T09:30:52.006Z,1006.56
2018-07-05T09:31:52.310Z,1006.56
2018-07-05T09:32:51.787Z,1006.54
2018-07-05T09:33:51.198Z,1006.54
2018-07-05T09:34:52.417Z,1006.52
2018-07-05T09:35:52.017Z,1006.53
2018-07-05T09:36:51.797Z,1006.56
2018-07-05T09:37:52.334Z,1006.54
2018-07-05T09:38:51.751Z,1006.54
2018-07-05T09:39:52.071Z,1006.51
2018-07-05T09:40:51.794Z,1006.53
2018-07-05T09:41:51.754Z,1006.55
2018-07-05T09:42:51.961Z,1006.51
2018-07-05T09:43:51.770Z,1006.54
2018-07-05T09:44:51.794Z,1006.51
2018-07-05T09:45:51.864Z,1006.57
2018-07-05T09:46:52.358Z,1006.55
2018-07-05T09:47:51.997Z,1006.55
2018-07-05T09:48:51.316Z,1006.56
2018-07-05T09:49:51.780Z,1006.57
2018-07-05T09:50:51.811Z,1006.60
2018-07-05T09:51:52.648Z,1006.61
2018-07-05T09:52:52.390Z,1006.64
2018-07-05T09:53:51.551Z,1006.62
2018-07-05T09:54:52.063Z,1006.59
2018-07-05T09:55:51.824Z,1006.63
2018-07-05T09:56:51.792Z,1006.60
2018-07-05T09:57:51.805Z,1006.61
2018-07-05T09:58:52.079Z,1006.56
2018-07-05T09:59:51.860Z,1006.58
2018-07-05T10:00:52.050Z,1006.60
2018-07-05T10:01:52.070Z,1006.59
2018-07-05T10:02:51.874Z,1006.58
2018-07-05T10:03:51.928Z,1006.63
2018-07-05T10:04:52.314Z,1006.62
2018-07-05T10:05:51.445Z,1006.57
2018-07-05T10:06:53.042Z,1006.63
2018-07-05T10:07:53.528Z,1006.56
2018-07-05T10:08:51.812Z,1006.59
2018-07-05T10:09:51.854Z,1006.58
2018-07-05T10:10:54.052Z,1006.53
2018-07-05T10:11:51.363Z,1006.57
2018-07-05T10:12:52.327Z,1006.60
2018-07-05T10:13:53.854Z,1006.56
2018-07-05T10:15:51.479Z,1006.69
2018-07-05T10:16:52.066Z,1006.64
2018-07-05T10:17:57.834Z,1006.60
2018-07-05T10:18:52.699Z,1006.63
2018-07-05T10:19:51.595Z,1006.64
2018-07-05T10:20:52.264Z,1006.63
2018-07-05T10:21:51.845Z,1006.61
2018-07-05T10:22:51.852Z,1006.59
2018-07-05T10:23:52.532Z,1006.64
2018-07-05T10:24:51.493Z,1006.67
2018-07-05T10:25:51.855Z,1006.71
2018-07-05T10:26:51.856Z,1006.66
2018-07-05T10:27:51.837Z,1006.68
2018-07-05T10:28:52.321Z,1006.67
2018-07-05T10:29:51.830Z,1006.71
2018-07-05T10:30:52.343Z,1006.71
2018-07-05T10:31:51.865Z,1006.67
2018-07-05T10:32:51.887Z,1006.75
2018-07-05T10:33:52.335Z,1006.68
2018-07-05T10:34:51.814Z,1006.66
2018-07-05T10:35:52.467Z,1006.68
2018-07-05T10:36:51.961Z,1006.64
2018-07-05T10:37:53.053Z,1006.66
2018-07-05T10:38:52.337Z,1006.64
2018-07-05T10:39:51.872Z,1006.60
2018-07-05T10:40:53.997Z,1006.62
2018-07-05T10:41:51.931Z,1006.63
2018-07-05T10:42:51.820Z,1006.63
2018-07-05T10:43:51.828Z,1006.60
2018-07-05T10:44:52.059Z,1006.66
2018-07-05T10:45:51.826Z,1006.67
2018-07-05T10:46:51.772Z,1006.66
2018-07-05T10:47:52.331Z,1006.67
2018-07-05T10:48:51.905Z,1006.66
2018-07-05T10:49:51.897Z,1006.68
2018-07-05T10:50:51.877Z,1006.68
2018-07-05T10:51:51.861Z,1006.67
2018-07-05T10:52:52.019Z,1006.70
2018-07-05T10:53:51.877Z,1006.64
2018-07-05T10:54:52.549Z,1006.60
2018-07-05T10:55:52.057Z,1006.61
2018-07-05T10:56:51.935Z,1006.65
2018-07-05T10:57:51.952Z,1006.61
2018-07-05T10:58:51.969Z,1006.61
2018-07-05T10:59:52.420Z,1006.61
2018-07-05T11:00:52.264Z,1006.62
2018-07-05T11:01:53.790Z,1006.63
2018-07-05T11:02:52.058Z,1006.59
2018-07-05T11:03:51.631Z,1006.64
2018-07-05T11:04:52.093Z,1006.61
2018-07-05T11:05:51.705Z,1006.63
2018-07-05T11:06:53.054Z,1006.60
2018-07-05T11:07:52.151Z,1006.61
2018-07-05T11:08:52.548Z,1006.64
2018-07-05T11:09:52.068Z,1006.59
2018-07-05T11:10:52.140Z,1006.67
2018-07-05T11:11:52.501Z,1006.60
2018-07-05T11:12:52.535Z,1006.68
2018-07-05T11:13:52.552Z,1006.68
2018-07-05T11:14:53.419Z,1006.70
2018-07-05T11:15:52.161Z,1006.67
2018-07-05T11:16:52.036Z,1006.68
2018-07-05T11:17:52.005Z,1006.75
2018-07-05T11:18:52.012Z,1006.72
2018-07-05T11:19:53.433Z,1006.73
2018-07-05T11:20:52.627Z,1006.74
2018-07-05T11:21:52.453Z,1006.71
2018-07-05T11:22:52.125Z,1006.77
2018-07-05T11:23:52.131Z,1006.65
2018-07-05T11:24:52.123Z,1006.66
2018-07-05T11:25:52.129Z,1006.69
2018-07-05T11:26:52.092Z,1006.64
2018-07-05T11:27:52.075Z,1006.67
2018-07-05T11:28:52.570Z,1006.64
2018-07-05T11:29:52.542Z,1006.62
2018-07-05T11:30:52.204Z,1006.63
2018-07-05T11:31:53.606Z,1006.72
2018-07-05T11:32:52.705Z,1006.69
2018-07-05T11:33:53.135Z,1006.68
2018-07-05T11:34:52.354Z,1006.69
2018-07-05T11:35:52.325Z,1006.67
2018-07-05T11:36:52.441Z,1006.68
2018-07-05T11:37:52.553Z,1006.71
2018-07-05T11:38:52.653Z,1006.73
2018-07-05T11:39:52.418Z,1006.69
2018-07-05T11:40:51.870Z,1006.66
2018-07-05T11:41:52.363Z,1006.71
2018-07-05T11:42:52.890Z,1006.72
2018-07-05T11:43:52.078Z,1006.76
2018-07-05T11:44:52.870Z,1006.76
2018-07-05T11:45:51.814Z,1006.74
2018-07-05T11:46:52.722Z,1006.64
2018-07-05T11:47:52.149Z,1006.66
2018-07-05T11:48:52.586Z,1006.66
2018-07-05T11:49:53.078Z,1006.66
2018-07-05T11:50:51.865Z,1006.71
2018-07-05T11:51:54.413Z,1006.66
2018-07-05T11:52:52.908Z,1006.66
2018-07-05T11:53:52.533Z,1006.67
2018-07-05T11:54:53.063Z,1006.61
2018-07-05T11:55:52.596Z,1006.64
2018-07-05T11:56:52.104Z,1006.64
2018-07-05T11:57:52.331Z,1006.62
2018-07-05T11:58:53.004Z,1006.69
2018-07-05T11:59:52.898Z,1006.68
2018-07-05T12:00:52.617Z,1006.63
2018-07-05T12:01:52.401Z,1006.66
2018-07-05T12:02:51.802Z,1006.63
2018-07-05T12:03:52.617Z,1006.67
2018-07-05T12:04:52.643Z,1006.63
2018-07-05T12:05:52.598Z,1006.68
2018-07-05T12:06:51.894Z,1006.64
2018-07-05T12:07:52.636Z,1006.63
2018-07-05T12:08:52.321Z,1006.60